createdAt,value
2018-07-11T00:00:23.276Z,0.00
2018-07-11T00:01:23.301Z,0.00
2018-07-11T00:02:23.330Z,0.00
2018-07-11T00:03:23.342Z,0.00
2018-07-11T00:04:23.363Z,0.00
2018-07-11T00:05:23.381Z,0.00
2018-07-11T00:06:23.409Z,0.00
2018-07-11T00:07:23.419Z,0.00
2018-07-11T00:08:23.451Z,0.00
2018-07-11T00:09:23.474Z,0.00
2018-07-11T00:10:23.482Z,0.00
2018-07-11T00:11:23.508Z,0.00
2018-07-11T00:12:23.528Z,0.00
2018-07-11T00:13:23.551Z,0.00
2018-07-11T00:14:23.567Z,0.00
2018-07-11T00:15:23.594Z,0.00
2018-07-11T00:16:23.615Z,0.00
2018-07-11T00:17:23.628Z,0.00
2018-07-11T00:18:23.658Z,0.00
2018-07-11T00:19:23.670Z,0.00
2018-07-11T00:20:23.691Z,0.00
2018-07-11T00:21:23.708Z,0.00
2018-07-11T00:22:23.736Z,0.00
2018-07-11T00:23:23.758Z,0.00
2018-07-11T00:24:23.778Z,0.00
2018-07-11T00:25:23.804Z,0.00
2018-07-11T00:26:23.812Z,0.00
2018-07-11T00:27:23.837Z,0.00
2018-07-11T00:28:23.857Z,0.00
2018-07-11T00:29:23.882Z,0.00
2018-07-11T00:30:23.908Z,0.00
2018-07-11T00:31:23.919Z,0.00
2018-07-11T00:32:23.940Z,0.00
2018-07-11T00:33:23.957Z,0.00
2018-07-11T00:34:23.988Z,0.00
2018-07-11T00:35:24.000Z,0.00
2018-07-11T00:36:24.022Z,0.00
2018-07-11T00:37:24.159Z,0.00
2018-07-11T00:38:24.061Z,0.00
2018-07-11T00:39:24.074Z,0.00
2018-07-11T00:40:24.103Z,0.00
2018-07-11T00:41:24.130Z,0.00
2018-07-11T00:42:24.139Z,0.00
2018-07-11T00:43:24.165Z,0.00
2018-07-11T00:44:24.195Z,0.00
2018-07-11T00:45:24.208Z,0.00
2018-07-11T00:46:24.226Z,0.00
2018-07-11T00:47:24.250Z,0.00
2018-07-11T00:48:24.260Z,0.00
2018-07-11T00:49:24.286Z,0.00
2018-07-11T00:50:24.313Z,0.00
2018-07-11T00:51:24.328Z,0.00
2018-07-11T00:52:24.349Z,0.00
2018-07-11T00:53:24.362Z,0.00
2018-07-11T00:54:24.390Z,0.00
2018-07-11T00:55:24.404Z,0.00
2018-07-11T00:56:24.434Z,0.00
2018-07-11T00:57:24.461Z,0.00
2018-07-11T00:58:24.481Z,0.00
2018-07-11T00:59:24.494Z,0.00
2018-07-11T01:00:24.514Z,0.00
2018-07-11T01:01:24.539Z,0.00
2018-07-11T01:02:24.550Z,0.00
2018-07-11T01:03:24.575Z,0.00
2018-07-11T01:04:24.586Z,0.00
2018-07-11T01:05:24.613Z,0.00
2018-07-11T01:06:24.646Z,0.00
2018-07-11T01:07:24.657Z,0.00
2018-07-11T01:08:24.679Z,0.00
2018-07-11T01:09:24.707Z,0.00
2018-07-11T01:10:24.717Z,0.00
2018-07-11T01:11:24.733Z,0.00
2018-07-11T01:12:24.772Z,0.00
2018-07-11T01:13:24.785Z,0.00
2018-07-11T01:14:24.800Z,0.00
2018-07-11T01:15:24.825Z,0.00
2018-07-11T01:16:24.834Z,0.00
2018-07-11T01:17:24.863Z,0.00
2018-07-11T01:18:24.876Z,0.00
2018-07-11T01:19:24.904Z,0.00
2018-07-11T01:20:24.933Z,0.00
2018-07-11T01:21:24.945Z,0.00
2018-07-11T01:22:24.964Z,0.00
2018-07-11T01:23:24.979Z,0.00
2018-07-11T01:24:25.010Z,0.00
2018-07-11T01:25:25.024Z,0.00
2018-07-11T01:26:25.064Z,0.00
2018-07-11T01:27:25.079Z,0.00
2018-07-11T01:28:25.087Z,0.00
2018-07-11T01:29:25.114Z,0.00
2018-07-11T01:30:25.129Z,0.00
2018-07-11T01:31:25.157Z,0.00
2018-07-11T01:32:25.165Z,0.00
2018-07-11T01:33:25.191Z,0.00
2018-07-11T01:34:25.215Z,0.00
2018-07-11T01:35:25.228Z,0.00
2018-07-11T01:36:25.260Z,0.00
2018-07-11T01:37:25.271Z,0.00
2018-07-11T01:38:25.295Z,0.00
2018-07-11T01:39:25.328Z,0.00
2018-07-11T01:40:25.340Z,0.00
2018-07-11T01:41:25.364Z,0.00
2018-07-11T01:42:25.378Z,0.00
2018-07-11T01:43:25.402Z,0.00
2018-07-11T01:44:25.430Z,0.00
2018-07-11T01:45:25.439Z,0.00
2018-07-11T01:46:25.467Z,0.00
2018-07-11T01:47:25.482Z,0.00
2018-07-11T01:48:25.513Z,0.00
2018-07-11T01:49:25.516Z,0.00
2018-07-11T01:50:25.545Z,0.00
2018-07-11T01:51:25.559Z,0.00
2018-07-11T01:52:25.589Z,0.00
2018-07-11T01:53:25.615Z,0.00
2018-07-11T01:54:25.620Z,0.00
2018-07-11T01:55:25.648Z,0.00
2018-07-11T01:56:25.666Z,0.00
2018-07-11T01:57:25.691Z,0.00
2018-07-11T01:58:25.719Z,0.00
2018-07-11T01:59:25.745Z,0.00
2018-07-11T02:00:25.753Z,0.00
2018-07-11T02:01:25.768Z,0.00
2018-07-11T02:02:25.799Z,0.00
2018-07-11T02:03:25.812Z,0.00
2018-07-11T02:04:25.833Z,0.00
2018-07-11T02:05:25.858Z,0.00
2018-07-11T02:06:25.871Z,0.00
2018-07-11T02:07:25.897Z,0.00
2018-07-11T02:08:25.914Z,0.00
2018-07-11T02:09:25.939Z,0.00
2018-07-11T02:10:25.965Z,0.00
2018-07-11T02:11:25.977Z,0.00
2018-07-11T02:12:26.008Z,0.00
2018-07-11T02:13:26.022Z,0.00
2018-07-11T02:14:26.045Z,0.00
2018-07-11T02:15:26.071Z,0.00
2018-07-11T02:16:26.081Z,0.00
2018-07-11T02:17:26.108Z,0.00
2018-07-11T02:18:26.125Z,0.00
2018-07-11T02:19:26.164Z,0.00
2018-07-11T02:20:26.165Z,4.00
2018-07-11T02:21:26.188Z,4.00
2018-07-11T02:22:26.211Z,0.00
2018-07-11T02:23:26.225Z,4.00
2018-07-11T02:24:26.254Z,4.00
2018-07-11T02:25:26.270Z,8.00
2018-07-11T02:26:26.293Z,4.00
2018-07-11T02:27:26.319Z,8.00
2018-07-11T02:28:26.335Z,8.00
2018-07-11T02:29:26.361Z,12.00
2018-07-11T02:30:26.376Z,12.00
2018-07-11T02:31:26.401Z,16.00
2018-07-11T02:32:26.409Z,16.00
2018-07-11T02:33:26.436Z,20.00
2018-07-11T02:34:26.465Z,20.00
2018-07-11T02:35:26.482Z,24.00
2018-07-11T02:36:26.501Z,32.00
2018-07-11T02:37:26.514Z,32.00
2018-07-11T02:38:26.542Z,40.00
2018-07-11T02:39:26.569Z,40.00
2018-07-11T02:40:26.587Z,44.00
2018-07-11T02:41:26.611Z,52.00
2018-07-11T02:42:26.618Z,56.00
2018-07-11T02:43:26.654Z,56.00
2018-07-11T02:44:26.674Z,64.00
2018-07-11T02:45:26.689Z,72.00
2018-07-11T02:46:26.718Z,72.00
2018-07-11T02:47:26.729Z,76.00
2018-07-11T02:48:26.751Z,84.00
2018-07-11T02:49:26.777Z,88.00
2018-07-11T02:50:26.796Z,92.00
2018-07-11T02:51:26.823Z,104.00
2018-07-11T02:52:26.829Z,108.00
2018-07-11T02:53:26.856Z,116.00
2018-07-11T02:54:26.868Z,124.00
2018-07-11T02:55:26.894Z,128.00
2018-07-11T02:56:26.924Z,140.00
2018-07-11T02:57:26.936Z,148.00
2018-07-11T02:58:26.961Z,160.00
2018-07-11T02:59:26.974Z,168.00
2018-07-11T03:00:27.005Z,176.00
2018-07-11T03:01:27.019Z,188.00
2018-07-11T03:02:27.041Z,200.00
2018-07-11T03:03:27.068Z,216.00
2018-07-11T03:04:27.077Z,236.00
2018-07-11T03:05:27.107Z,248.00
2018-07-11T03:06:27.121Z,268.00
2018-07-11T03:07:27.146Z,284.00
2018-07-11T03:08:27.168Z,296.00
2018-07-11T03:09:27.182Z,304.00
2018-07-11T03:10:27.210Z,312.00
2018-07-11T03:11:27.223Z,320.00
2018-07-11T03:12:27.256Z,332.00
2018-07-11T03:13:27.268Z,348.00
2018-07-11T03:14:27.289Z,372.00
2018-07-11T03:15:27.313Z,400.00
2018-07-11T03:16:27.330Z,428.00
2018-07-11T03:17:27.355Z,456.00
2018-07-11T03:18:27.372Z,484.00
2018-07-11T03:19:27.402Z,504.00
2018-07-11T03:20:27.407Z,528.00
2018-07-11T03:21:27.432Z,552.00
2018-07-11T03:22:27.461Z,576.00
2018-07-11T03:23:27.473Z,604.00
2018-07-11T03:24:27.502Z,636.00
2018-07-11T03:25:27.515Z,660.00
2018-07-11T03:26:27.540Z,684.00
2018-07-11T03:27:27.555Z,708.00
2018-07-11T03:28:27.575Z,732.00
2018-07-11T03:29:27.601Z,760.00
2018-07-11T03:30:27.620Z,796.00
2018-07-11T03:31:27.647Z,840.00
2018-07-11T03:32:27.736Z,896.00
2018-07-11T03:33:27.684Z,972.00
2018-07-11T03:34:27.694Z,1056.00
2018-07-11T03:35:27.720Z,1152.00
2018-07-11T03:36:27.749Z,1260.00
2018-07-11T03:37:27.764Z,1368.00
2018-07-11T03:38:27.786Z,1476.00
2018-07-11T03:39:27.798Z,1568.00
2018-07-11T03:40:27.828Z,1632.00
2018-07-11T03:41:27.842Z,1680.00
2018-07-11T03:42:27.870Z,1692.00
2018-07-11T03:43:27.897Z,1664.00
2018-07-11T03:44:27.904Z,1632.00
2018-07-11T03:45:27.945Z,1624.00
2018-07-11T03:46:27.950Z,1624.00
2018-07-11T03:47:27.974Z,1628.00
2018-07-11T03:48:27.982Z,1668.00
2018-07-11T03:49:28.009Z,1760.00
2018-07-11T03:50:28.036Z,1896.00
2018-07-11T03:51:28.050Z,2048.00
2018-07-11T03:52:28.080Z,2204.00
2018-07-11T03:53:28.096Z,2340.00
2018-07-11T03:54:28.114Z,2472.00
2018-07-11T03:55:28.128Z,2600.00
2018-07-11T03:56:28.160Z,2700.00
2018-07-11T03:57:28.189Z,2768.00
2018-07-11T03:58:28.195Z,2820.00
2018-07-11T03:59:28.238Z,2848.00
2018-07-11T04:00:28.231Z,2840.00
2018-07-11T04:01:28.259Z,2844.00
2018-07-11T04:02:28.326Z,2828.00
2018-07-11T04:03:28.303Z,2816.00
2018-07-11T04:04:28.325Z,2804.00
2018-07-11T04:05:28.339Z,2792.00
2018-07-11T04:06:28.363Z,2768.00
2018-07-11T04:07:28.377Z,2752.00
2018-07-11T04:08:28.405Z,2752.00
2018-07-11T04:09:28.421Z,2784.00
2018-07-11T04:10:28.441Z,2860.00
2018-07-11T04:11:28.467Z,2980.00
2018-07-11T04:12:28.484Z,3128.00
2018-07-11T04:13:28.527Z,3296.00
2018-07-11T04:14:28.526Z,3468.00
2018-07-11T04:15:28.553Z,3648.00
2018-07-11T04:16:28.562Z,3804.00
2018-07-11T04:17:28.588Z,3924.00
2018-07-11T04:18:28.615Z,4016.00
2018-07-11T04:19:28.630Z,4092.00
2018-07-11T04:20:28.651Z,4184.00
2018-07-11T04:21:28.664Z,4312.00
2018-07-11T04:22:28.692Z,4492.00
2018-07-11T04:23:28.706Z,4692.00
2018-07-11T04:24:28.737Z,4896.00
2018-07-11T04:25:28.763Z,5072.00
2018-07-11T04:26:28.769Z,5228.00
2018-07-11T04:27:28.808Z,5332.00
2018-07-11T04:28:28.815Z,5372.00
2018-07-11T04:29:28.860Z,5340.00
2018-07-11T04:30:28.855Z,5304.00
2018-07-11T04:31:28.884Z,5316.00
2018-07-11T04:32:28.901Z,5432.00
2018-07-11T04:33:28.982Z,5620.00
2018-07-11T04:34:28.986Z,5840.00
2018-07-11T04:35:28.957Z,6100.00
2018-07-11T04:36:28.978Z,6400.00
2018-07-11T04:37:29.007Z,6672.00
2018-07-11T04:38:29.021Z,6920.00
2018-07-11T04:39:29.048Z,7144.00
2018-07-11T04:40:29.070Z,7368.00
2018-07-11T04:41:29.104Z,7592.00
2018-07-11T04:42:29.142Z,7808.00
2018-07-11T04:43:29.126Z,8000.00
2018-07-11T04:44:29.189Z,8164.00
2018-07-11T04:45:29.169Z,8276.00
2018-07-11T04:46:29.193Z,8316.00
2018-07-11T04:47:29.221Z,8336.00
2018-07-11T04:48:29.230Z,8380.00
2018-07-11T04:49:29.256Z,8404.00
2018-07-11T04:50:29.275Z,8404.00
2018-07-11T04:51:29.300Z,8420.00
2018-07-11T04:52:29.322Z,8376.00
2018-07-11T04:53:29.335Z,8192.00
2018-07-11T04:54:29.359Z,7860.00
2018-07-11T04:55:29.385Z,7520.00
2018-07-11T04:56:29.403Z,7276.00
2018-07-11T04:57:29.429Z,7248.00
2018-07-11T04:58:29.438Z,7472.00
2018-07-11T04:59:29.464Z,7792.00
2018-07-11T05:00:29.495Z,8092.00
2018-07-11T05:01:29.509Z,8408.00
2018-07-11T05:02:29.537Z,8756.00
2018-07-11T05:03:29.564Z,9116.00
2018-07-11T05:04:29.571Z,9528.00
2018-07-11T05:05:29.598Z,9840.00
2018-07-11T05:06:29.625Z,10032.00
2018-07-11T05:07:29.638Z,10220.00
2018-07-11T05:08:29.660Z,10336.00
2018-07-11T05:09:29.686Z,10316.00
2018-07-11T05:10:29.705Z,10296.00
2018-07-11T05:11:29.728Z,10344.00
2018-07-11T05:12:29.759Z,10484.00
2018-07-11T05:13:29.771Z,10756.00
2018-07-11T05:14:29.793Z,10924.00
2018-07-11T05:15:29.819Z,10896.00
2018-07-11T05:16:29.838Z,10820.00
2018-07-11T05:17:29.864Z,10720.00
2018-07-11T05:18:29.887Z,10712.00
2018-07-11T05:19:29.913Z,10800.00
2018-07-11T05:20:29.922Z,10960.00
2018-07-11T05:21:29.949Z,11240.00
2018-07-11T05:22:29.968Z,11612.00
2018-07-11T05:23:29.999Z,12072.00
2018-07-11T05:24:30.017Z,12260.00
2018-07-11T05:25:30.029Z,13224.00
2018-07-11T05:26:30.066Z,13704.00
2018-07-11T05:27:30.079Z,13024.00
2018-07-11T05:28:30.099Z,12900.00
2018-07-11T05:29:30.124Z,14600.00
2018-07-11T05:30:30.146Z,20160.00
2018-07-11T05:31:30.173Z,16692.00
2018-07-11T05:32:30.191Z,19424.00
2018-07-11T05:33:30.216Z,14860.00
2018-07-11T05:34:30.239Z,18368.00
2018-07-11T05:35:30.265Z,17184.00
2018-07-11T05:36:30.277Z,12748.00
2018-07-11T05:37:30.302Z,9524.00
2018-07-11T05:38:30.334Z,9228.00
2018-07-11T05:39:30.347Z,9756.00
2018-07-11T05:40:30.369Z,10744.00
2018-07-11T05:41:30.398Z,11724.00
2018-07-11T05:42:30.468Z,12548.00
2018-07-11T05:43:30.433Z,13300.00
2018-07-11T05:44:30.463Z,13780.00
2018-07-11T05:45:30.491Z,13784.00
2018-07-11T05:46:30.510Z,13660.00
2018-07-11T05:47:30.523Z,13804.00
2018-07-11T05:48:30.557Z,14368.00
2018-07-11T05:49:30.592Z,14900.00
2018-07-11T05:50:30.607Z,15232.00
2018-07-11T05:51:30.622Z,15356.00
2018-07-11T05:52:30.644Z,15748.00
2018-07-11T05:53:30.670Z,16436.00
2018-07-11T05:54:30.697Z,17376.00
2018-07-11T05:55:30.711Z,17696.00
2018-07-11T05:56:30.733Z,17696.00
2018-07-11T05:57:30.760Z,17568.00
2018-07-11T05:58:30.786Z,17060.00
2018-07-11T05:59:30.814Z,16820.00
2018-07-11T06:00:30.831Z,16312.00
2018-07-11T06:01:30.857Z,15468.00
2018-07-11T06:02:30.887Z,14412.00
2018-07-11T06:03:30.904Z,13656.00
2018-07-11T06:04:30.921Z,13444.00
2018-07-11T06:05:30.979Z,14104.00
2018-07-11T06:06:30.973Z,14008.00
2018-07-11T06:07:30.997Z,13452.00
2018-07-11T06:08:31.019Z,13596.00
2018-07-11T06:09:31.035Z,14516.00
2018-07-11T06:10:31.067Z,15676.00
2018-07-11T06:11:31.091Z,13144.00
2018-07-11T06:12:31.113Z,12480.00
2018-07-11T06:13:31.143Z,12352.00
2018-07-11T06:14:31.163Z,13576.00
2018-07-11T06:15:31.177Z,15284.00
2018-07-11T06:16:31.207Z,13768.00
2018-07-11T06:17:31.232Z,14896.00
2018-07-11T06:18:31.254Z,14720.00
2018-07-11T06:19:31.292Z,14276.00
2018-07-11T06:20:31.303Z,14048.00
2018-07-11T06:21:31.324Z,14164.00
2018-07-11T06:22:31.352Z,15132.00
2018-07-11T06:23:31.378Z,15560.00
2018-07-11T06:24:31.400Z,18336.00
2018-07-11T06:25:31.426Z,15632.00
2018-07-11T06:26:31.454Z,38016.00
2018-07-11T06:27:31.468Z,17392.00
2018-07-11T06:28:31.493Z,22304.00
2018-07-11T06:29:31.514Z,23936.00
2018-07-11T06:30:31.549Z,20992.00
2018-07-11T06:31:31.568Z,31072.00
2018-07-11T06:32:31.592Z,23136.00
2018-07-11T06:33:31.685Z,22560.00
2018-07-11T06:34:31.634Z,26048.00
2018-07-11T06:35:31.659Z,34752.00
2018-07-11T06:36:31.689Z,31584.00
2018-07-11T06:37:31.702Z,26560.00
2018-07-11T06:38:31.729Z,31840.00
2018-07-11T06:39:31.755Z,25920.00
2018-07-11T06:40:31.778Z,25344.00
2018-07-11T06:41:31.803Z,26464.00
2018-07-11T06:42:31.843Z,36000.00
2018-07-11T06:43:31.857Z,25600.00
2018-07-11T06:44:31.933Z,28832.00
2018-07-11T06:45:31.906Z,33024.00
2018-07-11T06:46:31.933Z,26208.00
2018-07-11T06:47:31.959Z,29728.00
2018-07-11T06:48:31.978Z,27712.00
2018-07-11T06:49:32.005Z,23392.00
2018-07-11T06:50:32.026Z,26944.00
2018-07-11T06:51:32.051Z,22240.00
2018-07-11T06:52:32.082Z,20864.00
2018-07-11T06:53:32.107Z,21024.00
2018-07-11T06:54:32.131Z,22688.00
2018-07-11T06:55:32.157Z,29504.00
2018-07-11T06:56:32.178Z,32864.00
2018-07-11T06:57:32.264Z,64448.00
2018-07-11T06:58:32.237Z,30848.00
2018-07-11T06:59:32.262Z,30880.00
2018-07-11T07:00:32.285Z,30816.00
2018-07-11T07:01:32.314Z,29504.00
2018-07-11T07:02:32.335Z,35456.00
2018-07-11T07:03:32.401Z,33952.00
2018-07-11T07:04:32.393Z,31648.00
2018-07-11T07:05:32.417Z,36416.00
2018-07-11T07:06:32.438Z,48160.00
2018-07-11T07:07:32.465Z,59424.00
2018-07-11T07:08:32.494Z,43552.00
2018-07-11T07:09:32.521Z,63392.00
2018-07-11T07:10:32.550Z,43712.00
2018-07-11T07:11:32.575Z,53184.00
2018-07-11T07:12:32.597Z,40736.00
2018-07-11T07:13:32.622Z,60576.00
2018-07-11T07:14:32.663Z,68928.00
2018-07-11T07:15:32.689Z,70976.00
2018-07-11T07:16:32.772Z,70496.00
2018-07-11T07:17:32.736Z,71584.00
2018-07-11T07:18:32.764Z,69216.00
2018-07-11T07:19:32.803Z,33184.00
2018-07-11T07:20:32.821Z,26848.00
2018-07-11T07:21:32.860Z,48320.00
2018-07-11T07:22:32.941Z,55360.00
2018-07-11T07:23:32.907Z,42080.00
2018-07-11T07:24:32.937Z,49984.00
2018-07-11T07:25:32.964Z,30752.00
2018-07-11T07:26:33.000Z,36832.00
2018-07-11T07:27:33.033Z,33120.00
2018-07-11T07:28:33.047Z,35776.00
2018-07-11T07:29:33.073Z,47392.00
2018-07-11T07:30:33.106Z,49312.00
2018-07-11T07:31:33.144Z,73184.00
2018-07-11T07:32:33.167Z,60512.00
2018-07-11T07:33:33.192Z,65568.00
2018-07-11T07:34:33.216Z,55520.00
2018-07-11T07:35:33.254Z,88320.00
2018-07-11T07:36:33.297Z,61088.00
2018-07-11T07:37:33.311Z,44064.00
2018-07-11T07:38:33.336Z,33664.00
2018-07-11T07:39:33.376Z,32960.00
2018-07-11T07:40:33.397Z,28416.00
2018-07-11T07:41:33.423Z,35424.00
2018-07-11T07:42:33.452Z,48480.00
2018-07-11T07:43:33.489Z,54080.00
2018-07-11T07:44:33.518Z,45408.00
2018-07-11T07:45:33.546Z,37440.00
2018-07-11T07:46:33.578Z,46752.00
2018-07-11T07:47:33.604Z,55680.00
2018-07-11T07:48:33.635Z,38752.00
2018-07-11T07:49:33.660Z,32256.00
2018-07-11T07:50:33.702Z,30752.00
2018-07-11T07:51:33.726Z,32544.00
2018-07-11T07:52:33.749Z,30656.00
2018-07-11T07:53:33.787Z,47616.00
2018-07-11T07:54:33.817Z,45024.00
2018-07-11T07:55:33.844Z,42848.00
2018-07-11T07:56:33.865Z,49952.00
2018-07-11T07:57:33.904Z,67168.00
2018-07-11T07:58:33.939Z,59968.00
2018-07-11T07:59:33.952Z,74752.00
2018-07-11T08:00:34.025Z,56160.00
2018-07-11T08:01:34.022Z,26048.00
2018-07-11T08:02:34.045Z,37344.00
2018-07-11T08:03:34.070Z,67328.00
2018-07-11T08:04:34.113Z,81728.00
2018-07-11T08:05:34.157Z,79680.00
2018-07-11T08:06:34.176Z,76800.00
2018-07-11T08:07:34.203Z,78592.00
2018-07-11T08:08:34.226Z,20288.00
2018-07-11T08:09:34.262Z,37184.00
2018-07-11T08:10:34.292Z,77088.00
2018-07-11T08:11:34.331Z,80000.00
2018-07-11T08:12:34.411Z,80672.00
2018-07-11T08:13:34.378Z,77536.00
2018-07-11T08:14:34.419Z,78304.00
2018-07-11T08:15:34.445Z,77696.00
2018-07-11T08:16:34.490Z,79104.00
2018-07-11T08:17:34.514Z,82400.00
2018-07-11T08:18:34.545Z,85152.00
2018-07-11T08:19:34.585Z,84448.00
2018-07-11T08:20:34.615Z,83168.00
2018-07-11T08:21:34.679Z,80128.00
2018-07-11T08:22:34.682Z,51040.00
2018-07-11T08:23:34.719Z,62080.00
2018-07-11T08:24:34.767Z,17160.00
2018-07-11T08:25:34.779Z,15612.00
2018-07-11T08:26:34.822Z,21632.00
2018-07-11T08:27:34.852Z,78816.00
2018-07-11T08:28:34.882Z,77856.00
2018-07-11T08:29:34.921Z,75264.00
2018-07-11T08:30:34.946Z,21248.00
2018-07-11T08:31:34.984Z,20224.00
2018-07-11T08:32:35.014Z,28128.00
2018-07-11T08:33:35.053Z,21280.00
2018-07-11T08:34:35.104Z,17984.00
2018-07-11T08:35:35.115Z,20512.00
2018-07-11T08:36:35.145Z,25344.00
2018-07-11T08:37:35.183Z,23744.00
2018-07-11T08:38:35.209Z,22880.00
2018-07-11T08:39:35.294Z,25024.00
2018-07-11T08:40:35.270Z,27424.00
2018-07-11T08:41:35.305Z,26240.00
2018-07-11T08:42:35.338Z,25056.00
2018-07-11T08:43:35.365Z,24544.00
2018-07-11T08:44:35.398Z,23776.00
2018-07-11T08:45:35.427Z,22848.00
2018-07-11T08:46:35.464Z,22880.00
2018-07-11T08:47:35.530Z,23264.00
2018-07-11T08:48:35.517Z,23488.00
2018-07-11T08:49:35.555Z,23264.00
2018-07-11T08:50:35.578Z,23232.00
2018-07-11T08:51:35.604Z,24096.00
2018-07-11T08:52:35.634Z,25536.00
2018-07-11T08:53:35.673Z,51904.00
2018-07-11T08:54:35.698Z,54880.00
2018-07-11T08:55:35.728Z,43840.00
2018-07-11T08:56:35.746Z,82656.00
2018-07-11T08:57:35.785Z,108928.00
2018-07-11T08:58:35.814Z,109696.00
2018-07-11T08:59:35.839Z,77664.00
2018-07-11T09:00:35.875Z,86976.00
2018-07-11T09:01:35.900Z,42016.00
2018-07-11T09:02:35.972Z,52608.00
2018-07-11T09:03:35.966Z,64480.00
2018-07-11T09:04:35.998Z,53248.00
2018-07-11T09:05:36.039Z,84480.00
2018-07-11T09:06:36.057Z,112224.00
2018-07-11T09:07:36.094Z,99392.00
2018-07-11T09:08:36.124Z,73536.00
2018-07-11T09:09:36.164Z,95456.00
2018-07-11T09:10:36.281Z,108736.00
2018-07-11T09:11:36.229Z,50848.00
2018-07-11T09:12:36.263Z,105152.00
2018-07-11T09:13:36.288Z,67904.00
2018-07-11T09:14:36.331Z,30784.00
2018-07-11T09:15:36.372Z,29856.00
2018-07-11T09:16:36.417Z,25696.00
2018-07-11T09:17:36.432Z,25600.00
2018-07-11T09:18:36.467Z,31232.00
2018-07-11T09:19:36.506Z,56416.00
2018-07-11T09:20:36.535Z,79776.00
2018-07-11T09:21:36.573Z,32928.00
2018-07-11T09:22:36.610Z,19264.00
2018-07-11T09:23:36.636Z,16848.00
2018-07-11T09:24:36.679Z,26496.00
2018-07-11T09:25:36.706Z,56896.00
2018-07-11T09:26:36.741Z,68544.00
2018-07-11T09:27:36.781Z,70240.00
2018-07-11T09:28:36.800Z,71264.00
2018-07-11T09:29:36.840Z,61824.00
2018-07-11T09:30:36.930Z,72160.00
2018-07-11T09:31:36.908Z,48032.00
2018-07-11T09:32:36.945Z,57280.00
2018-07-11T09:33:36.968Z,72928.00
2018-07-11T09:34:37.013Z,31840.00
2018-07-11T09:35:37.047Z,30304.00
2018-07-11T09:36:37.077Z,30112.00
2018-07-11T09:37:37.129Z,29536.00
2018-07-11T09:38:37.137Z,30560.00
2018-07-11T09:39:37.173Z,31872.00
2018-07-11T09:40:37.205Z,34784.00
2018-07-11T09:41:37.244Z,47456.00
2018-07-11T09:42:37.272Z,53536.00
2018-07-11T09:43:37.309Z,55232.00
2018-07-11T09:44:37.335Z,44096.00
2018-07-11T09:45:37.430Z,36896.00
2018-07-11T09:46:37.408Z,33728.00
2018-07-11T09:47:37.434Z,29920.00
2018-07-11T09:48:37.477Z,26112.00
2018-07-11T09:49:37.503Z,25632.00
2018-07-11T09:50:37.553Z,23008.00
2018-07-11T09:51:37.564Z,23840.00
2018-07-11T09:52:37.600Z,32768.00
2018-07-11T09:53:37.626Z,30400.00
2018-07-11T09:54:37.670Z,37920.00
2018-07-11T09:55:37.695Z,31840.00
2018-07-11T09:56:37.718Z,30560.00
2018-07-11T09:57:37.767Z,28672.00
2018-07-11T09:58:37.780Z,26848.00
2018-07-11T09:59:37.820Z,27904.00
2018-07-11T10:00:37.852Z,95680.00
2018-07-11T10:01:37.888Z,58432.00
2018-07-11T10:02:37.910Z,38912.00
2018-07-11T10:03:37.935Z,33504.00
2018-07-11T10:04:37.980Z,31552.00
2018-07-11T10:05:38.003Z,30336.00
2018-07-11T10:06:38.045Z,31424.00
2018-07-11T10:07:38.071Z,77664.00
2018-07-11T10:08:38.103Z,33760.00
2018-07-11T10:09:38.129Z,34112.00
2018-07-11T10:10:38.163Z,55136.00
2018-07-11T10:11:38.197Z,43712.00
2018-07-11T10:12:38.334Z,36256.00
2018-07-11T10:13:38.271Z,31904.00
2018-07-11T10:14:38.286Z,27680.00
2018-07-11T10:15:38.326Z,25376.00
2018-07-11T10:16:38.354Z,23456.00
2018-07-11T10:17:38.396Z,21504.00
2018-07-11T10:18:38.413Z,19904.00
2018-07-11T10:19:38.444Z,19520.00
2018-07-11T10:20:38.483Z,19552.00
2018-07-11T10:21:38.582Z,20256.00
2018-07-11T10:22:38.545Z,21248.00
2018-07-11T10:23:38.571Z,23328.00
2018-07-11T10:24:38.593Z,24864.00
2018-07-11T10:25:38.631Z,26176.00
2018-07-11T10:26:38.665Z,26400.00
2018-07-11T10:27:38.703Z,26272.00
2018-07-11T10:28:38.723Z,27552.00
2018-07-11T10:29:38.751Z,28544.00
2018-07-11T10:30:38.787Z,28256.00
2018-07-11T10:31:38.813Z,26208.00
2018-07-11T10:32:38.843Z,25312.00
2018-07-11T10:33:38.905Z,26208.00
2018-07-11T10:34:38.915Z,28160.00
2018-07-11T10:35:38.938Z,27712.00
2018-07-11T10:36:38.959Z,28032.00
2018-07-11T10:37:38.997Z,28832.00
2018-07-11T10:38:39.025Z,30944.00
2018-07-11T10:39:39.065Z,32160.00
2018-07-11T10:40:39.084Z,32480.00
2018-07-11T10:41:39.112Z,32832.00
2018-07-11T10:42:39.139Z,32064.00
2018-07-11T10:43:39.179Z,31264.00
2018-07-11T10:44:39.199Z,33664.00
2018-07-11T10:45:39.226Z,33504.00
2018-07-11T10:46:39.265Z,29792.00
2018-07-11T10:47:39.294Z,39264.00
2018-07-11T10:48:39.322Z,32736.00
2018-07-11T10:49:39.361Z,39328.00
2018-07-11T10:50:39.440Z,59072.00
2018-07-11T10:51:39.418Z,32384.00
2018-07-11T10:52:39.450Z,31936.00
2018-07-11T10:53:39.475Z,33792.00
2018-07-11T10:54:39.516Z,61472.00
2018-07-11T10:55:39.542Z,54176.00
2018-07-11T10:56:39.563Z,105056.00
2018-07-11T10:57:39.684Z,120544.00
2018-07-11T10:58:39.629Z,108576.00
2018-07-11T10:59:39.669Z,113696.00
2018-07-11T11:00:39.745Z,45920.00
2018-07-11T11:01:39.728Z,92544.00
2018-07-11T11:02:39.803Z,56640.00
2018-07-11T11:03:39.796Z,104320.00
2018-07-11T11:04:39.828Z,70336.00
2018-07-11T11:05:39.866Z,33248.00
2018-07-11T11:06:39.901Z,32704.00
2018-07-11T11:07:39.937Z,61472.00
2018-07-11T11:08:39.967Z,51584.00
2018-07-11T11:09:40.009Z,86080.00
2018-07-11T11:10:40.042Z,42464.00
2018-07-11T11:11:40.080Z,47264.00
2018-07-11T11:12:40.103Z,103840.00
2018-07-11T11:13:40.140Z,62304.00
2018-07-11T11:14:40.224Z,106848.00
2018-07-11T11:15:40.223Z,84320.00
2018-07-11T11:16:40.246Z,106592.00
2018-07-11T11:17:40.285Z,89312.00
2018-07-11T11:18:40.320Z,103744.00
2018-07-11T11:19:40.360Z,97056.00
2018-07-11T11:20:40.414Z,85856.00
2018-07-11T11:21:40.491Z,99936.00
2018-07-11T11:22:40.828Z,103744.00
2018-07-11T11:23:40.715Z,100736.00
2018-07-11T11:24:40.554Z,103616.00
2018-07-11T11:25:40.623Z,106272.00
2018-07-11T11:26:40.988Z,109344.00
2018-07-11T11:27:40.684Z,106560.00
2018-07-11T11:28:40.720Z,108448.00
2018-07-11T11:29:40.771Z,110016.00
2018-07-11T11:30:40.815Z,111328.00
2018-07-11T11:31:40.839Z,69408.00
2018-07-11T11:32:40.872Z,26752.00
2018-07-11T11:33:40.922Z,26272.00
2018-07-11T11:34:40.963Z,25856.00
2018-07-11T11:35:41.067Z,25792.00
2018-07-11T11:36:41.043Z,26432.00
2018-07-11T11:37:41.083Z,29952.00
2018-07-11T11:38:41.129Z,31904.00
2018-07-11T11:39:41.167Z,30368.00
2018-07-11T11:40:41.211Z,29728.00
2018-07-11T11:41:41.366Z,30048.00
2018-07-11T11:42:41.350Z,28800.00
2018-07-11T11:43:41.324Z,26208.00
2018-07-11T11:44:41.366Z,24384.00
2018-07-11T11:45:41.397Z,22080.00
2018-07-11T11:46:41.441Z,20992.00
2018-07-11T11:47:41.479Z,20928.00
2018-07-11T11:48:41.501Z,22368.00
2018-07-11T11:49:41.541Z,23488.00
2018-07-11T11:50:41.575Z,24928.00
2018-07-11T11:51:41.614Z,27360.00
2018-07-11T11:52:41.660Z,34464.00
2018-07-11T11:53:41.699Z,31360.00
2018-07-11T11:54:41.724Z,29248.00
2018-07-11T11:55:41.759Z,33376.00
2018-07-11T11:56:41.794Z,31744.00
2018-07-11T11:57:41.820Z,29888.00
2018-07-11T11:58:41.863Z,33600.00
2018-07-11T11:59:41.899Z,79296.00
2018-07-11T12:00:41.931Z,66560.00
2018-07-11T12:01:41.971Z,62368.00
2018-07-11T12:02:42.000Z,33312.00
2018-07-11T12:03:42.028Z,26816.00
2018-07-11T12:04:42.068Z,23456.00
2018-07-11T12:05:42.107Z,20032.00
2018-07-11T12:06:42.147Z,17248.00
2018-07-11T12:07:42.179Z,15204.00
2018-07-11T12:08:42.208Z,14100.00